sensor_id;sensor_type;location;lat;lon;timestamp;P1;durP1;ratioP1;P2;durP2;ratioP2
75535;SDS011;64119;52.070;20.804;2024-03-23T00:53:42;16.80;;;9.00;;
75535;SDS011;64119;52.070;20.804;2024-03-23T00:56:10;18.00;;;9.30;;
75535;SDS011;64119;52.070;20.804;2024-03-23T00:58:37;19.50;;;10.30;;
75535;SDS011;64119;52.070;20.804;2024-03-23T01:01:05;21.60;;;9.50;;
75535;SDS011;64119;52.070;20.804;2024-03-23T01:03:33;23.20;;;10.00;;
75535;SDS011;64119;52.070;20.804;2024-03-23T01:06:00;18.10;;;9.30;;
75535;SDS011;64119;52.070;20.804;2024-03-23T01:08:28;18.30;;;9.60;;
75535;SDS011;64119;52.070;20.804;2024-03-23T01:10:56;18.80;;;9.40;;
75535;SDS011;64119;52.070;20.804;2024-03-23T01:13:25;18.40;;;9.60;;
75535;SDS011;64119;52.070;20.804;2024-03-23T01:15:54;20.10;;;10.00;;
75535;SDS011;64119;52.070;20.804;2024-03-23T01:18:23;16.50;;;8.80;;
75535;SDS011;64119;52.070;20.804;2024-03-23T01:20:53;18.20;;;9.10;;
75535;SDS011;64119;52.070;20.804;2024-03-23T01:23:21;19.60;;;10.80;;
75535;SDS011;64119;52.070;20.804;2024-03-23T01:25:52;19.30;;;9.60;;
75535;SDS011;64119;52.070;20.804;2024-03-23T01:28:21;20.00;;;10.40;;
75535;SDS011;64119;52.070;20.804;2024-03-23T01:30:49;17.60;;;9.40;;
75535;SDS011;64119;52.070;20.804;2024-03-23T01:33:17;19.30;;;9.30;;
75535;SDS011;64119;52.070;20.804;2024-03-23T01:35:44;22.20;;;10.50;;
75535;SDS011;64119;52.070;20.804;2024-03-23T01:38:12;21.40;;;10.80;;
75535;SDS011;64119;52.070;20.804;2024-03-23T01:40:39;23.50;;;11.00;;
75535;SDS011;64119;52.070;20.804;2024-03-23T01:43:07;16.70;;;8.70;;
75535;SDS011;64119;52.070;20.804;2024-03-23T01:45:35;17.80;;;9.40;;
75535;SDS011;64119;52.070;20.804;2024-03-23T01:48:04;21.00;;;10.30;;
75535;SDS011;64119;52.070;20.804;2024-03-23T01:50:32;21.10;;;11.10;;
75535;SDS011;64119;52.070;20.804;2024-03-23T01:53:02;23.90;;;10.40;;
75535;SDS011;64119;52.070;20.804;2024-03-23T01:55:33;18.90;;;9.50;;
75535;SDS011;64119;52.070;20.804;2024-03-23T01:58:06;20.50;;;9.40;;
75535;SDS011;64119;52.070;20.804;2024-03-23T02:00:34;21.90;;;9.80;;
75535;SDS011;64119;52.070;20.804;2024-03-23T02:03:11;21.80;;;10.00;;
75535;SDS011;64119;52.070;20.804;2024-03-23T02:05:50;23.10;;;9.60;;
75535;SDS011;64119;52.070;20.804;2024-03-23T02:08:20;25.00;;;10.80;;
75535;SDS011;64119;52.070;20.804;2024-03-23T02:10:49;22.00;;;10.10;;
75535;SDS011;64119;52.070;20.804;2024-03-23T02:13:18;21.90;;;10.30;;
75535;SDS011;64119;52.070;20.804;2024-03-23T02:15:46;22.60;;;10.30;;
75535;SDS011;64119;52.070;20.804;2024-03-23T02:18:15;23.70;;;10.60;;
75535;SDS011;64119;52.070;20.804;2024-03-23T02:20:42;24.00;;;11.30;;
75535;SDS011;64119;52.070;20.804;2024-03-23T02:23:16;20.90;;;10.10;;
75535;SDS011;64119;52.070;20.804;2024-03-23T02:25:45;26.40;;;12.00;;
75535;SDS011;64119;52.070;20.804;2024-03-23T02:28:13;22.80;;;10.50;;
75535;SDS011;64119;52.070;20.804;2024-03-23T02:30:40;20.80;;;10.30;;
75535;SDS011;64119;52.070;20.804;2024-03-23T02:33:08;24.60;;;11.00;;
75535;SDS011;64119;52.070;20.804;2024-03-23T02:35:36;25.00;;;10.90;;
75535;SDS011;64119;52.070;20.804;2024-03-23T02:38:03;22.10;;;11.30;;
75535;SDS011;64119;52.070;20.804;2024-03-23T02:40:31;23.70;;;11.40;;
75535;SDS011;64119;52.070;20.804;2024-03-23T02:42:58;23.50;;;11.90;;
75535;SDS011;64119;52.070;20.804;2024-03-23T02:45:26;23.30;;;11.30;;
75535;SDS011;64119;52.070;20.804;2024-03-23T02:47:54;24.10;;;11.70;;
75535;SDS011;64119;52.070;20.804;2024-03-23T02:50:21;25.00;;;11.40;;
75535;SDS011;64119;52.070;20.804;2024-03-23T02:52:49;22.20;;;10.70;;
75535;SDS011;64119;52.070;20.804;2024-03-23T02:55:16;25.30;;;11.80;;
75535;SDS011;64119;52.070;20.804;2024-03-23T02:57:44;23.60;;;11.70;;
75535;SDS011;64119;52.070;20.804;2024-03-23T03:00:12;22.30;;;10.50;;
75535;SDS011;64119;52.070;20.804;2024-03-23T03:02:40;26.10;;;12.20;;
75535;SDS011;64119;52.070;20.804;2024-03-23T03:05:07;25.70;;;12.10;;
75535;SDS011;64119;52.070;20.804;2024-03-23T03:07:36;26.90;;;12.60;;
75535;SDS011;64119;52.070;20.804;2024-03-23T03:10:06;21.60;;;11.80;;
75535;SDS011;64119;52.070;20.804;2024-03-23T03:15:03;23.70;;;10.60;;
75535;SDS011;64119;52.070;20.804;2024-03-23T03:17:32;22.10;;;10.90;;
75535;SDS011;64119;52.070;20.804;2024-03-23T03:19:59;25.80;;;11.70;;
75535;SDS011;64119;52.070;20.804;2024-03-23T03:22:27;22.80;;;11.40;;
75535;SDS011;64119;52.070;20.804;2024-03-23T03:24:54;19.70;;;10.30;;
75535;SDS011;64119;52.070;20.804;2024-03-23T03:27:22;23.20;;;10.50;;
75535;SDS011;64119;52.070;20.804;2024-03-23T03:29:50;21.00;;;10.60;;
75535;SDS011;64119;52.070;20.804;2024-03-23T03:32:17;24.00;;;11.10;;
75535;SDS011;64119;52.070;20.804;2024-03-23T03:34:45;23.30;;;10.40;;
75535;SDS011;64119;52.070;20.804;2024-03-23T03:37:12;23.60;;;10.50;;
75535;SDS011;64119;52.070;20.804;2024-03-23T03:39:40;26.00;;;11.40;;
75535;SDS011;64119;52.070;20.804;2024-03-23T03:42:07;24.20;;;10.90;;
75535;SDS011;64119;52.070;20.804;2024-03-23T03:44:35;24.20;;;10.90;;
75535;SDS011;64119;52.070;20.804;2024-03-23T03:47:04;24.60;;;11.60;;
75535;SDS011;64119;52.070;20.804;2024-03-23T03:49:32;25.10;;;11.40;;
75535;SDS011;64119;52.070;20.804;2024-03-23T03:52:00;26.60;;;12.30;;
75535;SDS011;64119;52.070;20.804;2024-03-23T03:54:29;24.10;;;11.80;;
75535;SDS011;64119;52.070;20.804;2024-03-23T03:56:56;25.70;;;12.20;;
75535;SDS011;64119;52.070;20.804;2024-03-23T03:59:24;23.20;;;11.20;;
75535;SDS011;64119;52.070;20.804;2024-03-23T04:01:51;27.00;;;12.10;;
75535;SDS011;64119;52.070;20.804;2024-03-23T04:04:19;24.20;;;11.90;;
75535;SDS011;64119;52.070;20.804;2024-03-23T04:06:48;30.80;;;13.10;;
75535;SDS011;64119;52.070;20.804;2024-03-23T04:09:15;24.60;;;11.70;;
75535;SDS011;64119;52.070;20.804;2024-03-23T04:11:42;25.80;;;12.20;;
75535;SDS011;64119;52.070;20.804;2024-03-23T04:14:10;25.40;;;11.10;;
75535;SDS011;64119;52.070;20.804;2024-03-23T04:16:38;27.20;;;12.90;;
75535;SDS011;64119;52.070;20.804;2024-03-23T04:19:05;31.00;;;14.70;;
75535;SDS011;64119;52.070;20.804;2024-03-23T04:21:33;27.40;;;13.20;;
75535;SDS011;64119;52.070;20.804;2024-03-23T04:24:01;23.30;;;11.80;;
75535;SDS011;64119;52.070;20.804;2024-03-23T04:26:28;27.10;;;12.80;;
75535;SDS011;64119;52.070;20.804;2024-03-23T04:28:56;28.50;;;12.30;;
75535;SDS011;64119;52.070;20.804;2024-03-23T04:31:24;23.90;;;11.50;;
75535;SDS011;64119;52.070;20.804;2024-03-23T04:33:51;26.90;;;13.80;;
75535;SDS011;64119;52.070;20.804;2024-03-23T04:36:18;24.40;;;11.90;;
75535;SDS011;64119;52.070;20.804;2024-03-23T04:38:46;24.50;;;12.70;;
75535;SDS011;64119;52.070;20.804;2024-03-23T04:41:17;26.40;;;12.80;;
75535;SDS011;64119;52.070;20.804;2024-03-23T04:43:44;27.20;;;12.30;;
75535;SDS011;64119;52.070;20.804;2024-03-23T04:46:12;28.90;;;14.00;;
75535;SDS011;64119;52.070;20.804;2024-03-23T04:48:39;27.70;;;12.50;;
75535;SDS011;64119;52.070;20.804;2024-03-23T04:51:07;28.10;;;12.70;;
75535;SDS011;64119;52.070;20.804;2024-03-23T04:53:35;27.20;;;13.10;;
75535;SDS011;64119;52.070;20.804;2024-03-23T04:56:02;29.90;;;13.30;;
75535;SDS011;64119;52.070;20.804;2024-03-23T04:58:31;24.50;;;12.10;;
75535;SDS011;64119;52.070;20.804;2024-03-23T05:00:59;26.30;;;12.20;;
75535;SDS011;64119;52.070;20.804;2024-03-23T05:03:26;22.20;;;11.00;;
75535;SDS011;64119;52.070;20.804;2024-03-23T05:05:54;25.90;;;12.40;;
75535;SDS011;64119;52.070;20.804;2024-03-23T05:08:21;28.20;;;13.50;;
75535;SDS011;64119;52.070;20.804;2024-03-23T05:10:49;26.70;;;12.80;;
75535;SDS011;64119;52.070;20.804;2024-03-23T05:13:17;27.50;;;12.30;;
75535;SDS011;64119;52.070;20.804;2024-03-23T05:15:50;26.60;;;12.10;;
75535;SDS011;64119;52.070;20.804;2024-03-23T05:18:19;25.00;;;12.60;;
75535;SDS011;64119;52.070;20.804;2024-03-23T05:20:48;27.50;;;13.40;;
75535;SDS011;64119;52.070;20.804;2024-03-23T05:23:15;35.30;;;18.50;;
75535;SDS011;64119;52.070;20.804;2024-03-23T05:25:43;34.40;;;19.00;;
75535;SDS011;64119;52.070;20.804;2024-03-23T05:28:10;23.00;;;12.20;;
75535;SDS011;64119;52.070;20.804;2024-03-23T05:30:39;25.90;;;12.00;;
75535;SDS011;64119;52.070;20.804;2024-03-23T05:33:07;24.60;;;11.10;;
75535;SDS011;64119;52.070;20.804;2024-03-23T05:35:35;26.20;;;13.00;;
75535;SDS011;64119;52.070;20.804;2024-03-23T05:38:02;28.10;;;12.80;;
75535;SDS011;64119;52.070;20.804;2024-03-23T05:40:30;24.30;;;11.70;;
75535;SDS011;64119;52.070;20.804;2024-03-23T05:42:58;28.70;;;12.70;;
75535;SDS011;64119;52.070;20.804;2024-03-23T05:45:26;25.10;;;12.10;;
75535;SDS011;64119;52.070;20.804;2024-03-23T05:47:53;26.90;;;11.60;;
75535;SDS011;64119;52.070;20.804;2024-03-23T05:50:21;27.30;;;12.30;;
75535;SDS011;64119;52.070;20.804;2024-03-23T05:52:49;27.30;;;12.40;;
75535;SDS011;64119;52.070;20.804;2024-03-23T05:55:17;26.60;;;13.10;;
75535;SDS011;64119;52.070;20.804;2024-03-23T05:57:45;25.00;;;11.40;;
75535;SDS011;64119;52.070;20.804;2024-03-23T06:00:12;23.10;;;11.90;;
75535;SDS011;64119;52.070;20.804;2024-03-23T06:02:43;22.70;;;11.40;;
75535;SDS011;64119;52.070;20.804;2024-03-23T06:05:13;28.80;;;13.60;;
75535;SDS011;64119;52.070;20.804;2024-03-23T06:07:41;31.80;;;13.40;;
75535;SDS011;64119;52.070;20.804;2024-03-23T06:10:08;27.60;;;12.50;;
75535;SDS011;64119;52.070;20.804;2024-03-23T06:12:36;24.80;;;11.30;;
75535;SDS011;64119;52.070;20.804;2024-03-23T06:15:06;25.50;;;13.10;;
75535;SDS011;64119;52.070;20.804;2024-03-23T06:17:41;28.00;;;12.40;;
75535;SDS011;64119;52.070;20.804;2024-03-23T06:20:08;24.70;;;11.40;;
75535;SDS011;64119;52.070;20.804;2024-03-23T06:22:37;24.90;;;12.00;;
75535;SDS011;64119;52.070;20.804;2024-03-23T06:25:05;24.80;;;11.60;;
75535;SDS011;64119;52.070;20.804;2024-03-23T06:27:33;26.30;;;11.80;;
75535;SDS011;64119;52.070;20.804;2024-03-23T06:30:01;25.40;;;12.50;;
75535;SDS011;64119;52.070;20.804;2024-03-23T06:32:29;25.90;;;13.00;;
75535;SDS011;64119;52.070;20.804;2024-03-23T06:34:56;27.40;;;12.20;;
75535;SDS011;64119;52.070;20.804;2024-03-23T06:37:24;23.60;;;11.10;;
75535;SDS011;64119;52.070;20.804;2024-03-23T06:39:52;23.60;;;11.70;;
75535;SDS011;64119;52.070;20.804;2024-03-23T06:42:19;25.20;;;12.00;;
75535;SDS011;64119;52.070;20.804;2024-03-23T06:44:47;22.00;;;11.00;;
75535;SDS011;64119;52.070;20.804;2024-03-23T06:47:14;20.80;;;9.50;;
75535;SDS011;64119;52.070;20.804;2024-03-23T06:49:42;23.80;;;11.50;;
75535;SDS011;64119;52.070;20.804;2024-03-23T06:52:09;22.50;;;11.50;;
75535;SDS011;64119;52.070;20.804;2024-03-23T06:54:37;24.60;;;11.60;;
75535;SDS011;64119;52.070;20.804;2024-03-23T06:57:04;21.90;;;10.30;;
75535;SDS011;64119;52.070;20.804;2024-03-23T06:59:32;28.30;;;14.10;;
75535;SDS011;64119;52.070;20.804;2024-03-23T07:02:00;25.70;;;11.80;;
75535;SDS011;64119;52.070;20.804;2024-03-23T07:04:27;26.50;;;12.00;;
75535;SDS011;64119;52.070;20.804;2024-03-23T07:06:55;28.60;;;13.40;;
75535;SDS011;64119;52.070;20.804;2024-03-23T07:09:23;25.30;;;12.20;;
75535;SDS011;64119;52.070;20.804;2024-03-23T07:11:58;25.20;;;12.50;;
75535;SDS011;64119;52.070;20.804;2024-03-23T07:14:25;23.10;;;10.10;;
75535;SDS011;64119;52.070;20.804;2024-03-23T07:16:53;22.90;;;11.60;;
75535;SDS011;64119;52.070;20.804;2024-03-23T07:19:20;24.30;;;11.20;;
75535;SDS011;64119;52.070;20.804;2024-03-23T07:21:48;26.10;;;12.70;;
75535;SDS011;64119;52.070;20.804;2024-03-23T07:24:16;21.90;;;12.00;;
75535;SDS011;64119;52.070;20.804;2024-03-23T07:26:43;23.40;;;12.50;;
75535;SDS011;64119;52.070;20.804;2024-03-23T07:29:11;29.10;;;13.80;;
75535;SDS011;64119;52.070;20.804;2024-03-23T07:31:39;28.70;;;13.10;;
75535;SDS011;64119;52.070;20.804;2024-03-23T07:34:08;32.10;;;13.30;;
75535;SDS011;64119;52.070;20.804;2024-03-23T07:36:36;25.60;;;12.40;;
75535;SDS011;64119;52.070;20.804;2024-03-23T07:39:03;21.90;;;10.70;;
75535;SDS011;64119;52.070;20.804;2024-03-23T07:41:33;22.70;;;9.60;;
75535;SDS011;64119;52.070;20.804;2024-03-23T07:44:02;22.90;;;12.00;;
75535;SDS011;64119;52.070;20.804;2024-03-23T07:46:30;24.60;;;11.20;;
75535;SDS011;64119;52.070;20.804;2024-03-23T07:48:58;21.50;;;10.90;;
75535;SDS011;64119;52.070;20.804;2024-03-23T07:51:25;24.40;;;10.80;;
75535;SDS011;64119;52.070;20.804;2024-03-23T07:53:53;19.50;;;9.70;;
75535;SDS011;64119;52.070;20.804;2024-03-23T07:56:20;25.00;;;9.90;;
75535;SDS011;64119;52.070;20.804;2024-03-23T07:58:49;23.00;;;10.30;;
75535;SDS011;64119;52.070;20.804;2024-03-23T08:01:17;21.90;;;9.70;;
75535;SDS011;64119;52.070;20.804;2024-03-23T08:03:45;21.00;;;10.20;;
75535;SDS011;64119;52.070;20.804;2024-03-23T08:06:16;19.30;;;10.30;;
75535;SDS011;64119;52.070;20.804;2024-03-23T08:08:47;21.80;;;9.60;;
75535;SDS011;64119;52.070;20.804;2024-03-23T08:11:18;18.50;;;10.20;;
75535;SDS011;64119;52.070;20.804;2024-03-23T08:13:45;20.10;;;10.10;;
75535;SDS011;64119;52.070;20.804;2024-03-23T08:16:13;15.70;;;8.20;;
75535;SDS011;64119;52.070;20.804;2024-03-23T08:18:41;20.10;;;9.50;;
75535;SDS011;64119;52.070;20.804;2024-03-23T08:21:09;17.60;;;9.20;;
75535;SDS011;64119;52.070;20.804;2024-03-23T08:23:36;18.00;;;8.80;;
75535;SDS011;64119;52.070;20.804;2024-03-23T08:26:12;24.30;;;11.00;;
75535;SDS011;64119;52.070;20.804;2024-03-23T08:28:40;18.80;;;9.40;;
75535;SDS011;64119;52.070;20.804;2024-03-23T08:31:08;21.20;;;8.90;;
75535;SDS011;64119;52.070;20.804;2024-03-23T08:33:37;18.10;;;9.60;;
75535;SDS011;64119;52.070;20.804;2024-03-23T08:38:35;17.00;;;9.00;;
75535;SDS011;64119;52.070;20.804;2024-03-23T08:41:03;16.30;;;8.60;;
75535;SDS011;64119;52.070;20.804;2024-03-23T08:43:38;18.00;;;8.80;;
75535;SDS011;64119;52.070;20.804;2024-03-23T08:46:12;14.10;;;7.90;;
75535;SDS011;64119;52.070;20.804;2024-03-23T08:48:42;15.30;;;8.30;;
75535;SDS011;64119;52.070;20.804;2024-03-23T08:51:12;14.60;;;8.20;;
75535;SDS011;64119;52.070;20.804;2024-03-23T08:53:41;14.10;;;7.60;;
75535;SDS011;64119;52.070;20.804;2024-03-23T08:56:09;13.80;;;7.50;;
75535;SDS011;64119;52.070;20.804;2024-03-23T08:58:37;14.60;;;6.90;;
75535;SDS011;64119;52.070;20.804;2024-03-23T09:01:06;15.40;;;7.80;;
75535;SDS011;64119;52.070;20.804;2024-03-23T09:03:37;13.30;;;7.10;;
75535;SDS011;64119;52.070;20.804;2024-03-23T09:06:13;12.50;;;7.20;;
75535;SDS011;64119;52.070;20.804;2024-03-23T09:08:42;11.10;;;6.30;;
75535;SDS011;64119;52.070;20.804;2024-03-23T09:11:11;11.20;;;6.30;;
75535;SDS011;64119;52.070;20.804;2024-03-23T09:13:39;12.00;;;6.60;;
75535;SDS011;64119;52.070;20.804;2024-03-23T09:16:07;11.70;;;6.50;;
75535;SDS011;64119;52.070;20.804;2024-03-23T09:18:36;12.70;;;6.50;;
75535;SDS011;64119;52.070;20.804;2024-03-23T09:21:11;11.60;;;6.30;;
75535;SDS011;64119;52.070;20.804;2024-03-23T09:23:42;10.70;;;6.10;;
75535;SDS011;64119;52.070;20.804;2024-03-23T09:26:11;10.40;;;6.10;;
75535;SDS011;64119;52.070;20.804;2024-03-23T09:28:39;11.80;;;6.30;;
75535;SDS011;64119;52.070;20.804;2024-03-23T09:31:07;9.70;;;5.90;;
75535;SDS011;64119;52.070;20.804;2024-03-23T09:33:35;10.40;;;6.00;;
75535;SDS011;64119;52.070;20.804;2024-03-23T09:36:03;13.30;;;6.30;;
75535;SDS011;64119;52.070;20.804;2024-03-23T09:38:31;11.90;;;6.40;;
75535;SDS011;64119;52.070;20.804;2024-03-23T09:40:59;10.90;;;6.30;;
75535;SDS011;64119;52.070;20.804;2024-03-23T09:43:27;10.80;;;6.40;;
75535;SDS011;64119;52.070;20.804;2024-03-23T09:45:54;11.50;;;6.00;;
75535;SDS011;64119;52.070;20.804;2024-03-23T09:48:22;11.40;;;6.60;;
75535;SDS011;64119;52.070;20.804;2024-03-23T09:50:50;10.50;;;5.60;;
75535;SDS011;64119;52.070;20.804;2024-03-23T09:53:17;10.30;;;6.30;;
75535;SDS011;64119;52.070;20.804;2024-03-23T09:55:45;10.40;;;5.80;;
75535;SDS011;64119;52.070;20.804;2024-03-23T09:58:13;9.00;;;6.00;;
75535;SDS011;64119;52.070;20.804;2024-03-23T10:00:44;10.40;;;5.70;;
75535;SDS011;64119;52.070;20.804;2024-03-23T10:03:12;10.10;;;5.70;;
75535;SDS011;64119;52.070;20.804;2024-03-23T10:05:40;8.40;;;5.40;;
75535;SDS011;64119;52.070;20.804;2024-03-23T10:10:42;9.30;;;5.60;;
75535;SDS011;64119;52.070;20.804;2024-03-23T10:13:11;12.00;;;5.80;;
75535;SDS011;64119;52.070;20.804;2024-03-23T10:15:58;9.60;;;5.20;;
75535;SDS011;64119;52.070;20.804;2024-03-23T10:18:26;8.80;;;5.60;;
75535;SDS011;64119;52.070;20.804;2024-03-23T10:23:35;9.50;;;5.50;;
75535;SDS011;64119;52.070;20.804;2024-03-23T10:26:20;8.30;;;5.10;;
75535;SDS011;64119;52.070;20.804;2024-03-23T10:31:30;9.20;;;5.70;;
75535;SDS011;64119;52.070;20.804;2024-03-23T10:33:58;9.40;;;5.10;;
75535;SDS011;64119;52.070;20.804;2024-03-23T10:36:28;9.00;;;4.90;;
75535;SDS011;64119;52.070;20.804;2024-03-23T10:41:28;8.60;;;6.30;;
75535;SDS011;64119;52.070;20.804;2024-03-23T10:43:59;9.10;;;5.50;;
75535;SDS011;64119;52.070;20.804;2024-03-23T10:46:29;7.50;;;5.00;;
75535;SDS011;64119;52.070;20.804;2024-03-23T10:48:58;10.70;;;5.50;;
75535;SDS011;64119;52.070;20.804;2024-03-23T10:51:26;11.30;;;5.50;;
75535;SDS011;64119;52.070;20.804;2024-03-23T10:53:53;10.00;;;5.60;;
75535;SDS011;64119;52.070;20.804;2024-03-23T10:56:23;11.40;;;6.00;;
75535;SDS011;64119;52.070;20.804;2024-03-23T10:58:54;6.70;;;4.70;;
75535;SDS011;64119;52.070;20.804;2024-03-23T11:01:22;8.00;;;4.90;;
75535;SDS011;64119;52.070;20.804;2024-03-23T11:03:51;10.30;;;5.70;;
75535;SDS011;64119;52.070;20.804;2024-03-23T11:09:02;8.50;;;5.20;;
75535;SDS011;64119;52.070;20.804;2024-03-23T11:11:30;8.80;;;5.50;;
75535;SDS011;64119;52.070;20.804;2024-03-23T11:13:59;8.40;;;4.90;;
75535;SDS011;64119;52.070;20.804;2024-03-23T11:16:28;7.30;;;4.70;;
75535;SDS011;64119;52.070;20.804;2024-03-23T11:22:05;7.60;;;4.20;;
75535;SDS011;64119;52.070;20.804;2024-03-23T11:24:33;7.30;;;4.70;;
75535;SDS011;64119;52.070;20.804;2024-03-23T11:27:01;7.80;;;4.80;;
75535;SDS011;64119;52.070;20.804;2024-03-23T11:29:31;7.90;;;5.00;;
75535;SDS011;64119;52.070;20.804;2024-03-23T11:31:58;8.00;;;5.20;;
75535;SDS011;64119;52.070;20.804;2024-03-23T11:34:28;10.60;;;4.70;;
75535;SDS011;64119;52.070;20.804;2024-03-23T11:37:03;8.20;;;4.60;;
75535;SDS011;64119;52.070;20.804;2024-03-23T11:39:32;10.00;;;5.80;;
75535;SDS011;64119;52.070;20.804;2024-03-23T11:42:00;8.00;;;4.40;;
75535;SDS011;64119;52.070;20.804;2024-03-23T11:44:27;7.00;;;4.00;;
75535;SDS011;64119;52.070;20.804;2024-03-23T11:47:03;8.30;;;4.80;;
75535;SDS011;64119;52.070;20.804;2024-03-23T11:49:36;9.10;;;4.70;;
75535;SDS011;64119;52.070;20.804;2024-03-23T11:52:08;7.70;;;4.50;;
75535;SDS011;64119;52.070;20.804;2024-03-23T11:54:35;6.60;;;4.40;;
75535;SDS011;64119;52.070;20.804;2024-03-23T11:57:04;7.00;;;4.70;;
75535;SDS011;64119;52.070;20.804;2024-03-23T11:59:36;8.10;;;4.50;;
75535;SDS011;64119;52.070;20.804;2024-03-23T12:02:08;10.30;;;4.90;;
75535;SDS011;64119;52.070;20.804;2024-03-23T12:04:38;9.50;;;5.90;;
75535;SDS011;64119;52.070;20.804;2024-03-23T12:09:39;7.10;;;3.90;;
75535;SDS011;64119;52.070;20.804;2024-03-23T12:12:25;7.90;;;4.70;;
75535;SDS011;64119;52.070;20.804;2024-03-23T12:15:06;8.90;;;4.60;;
75535;SDS011;64119;52.070;20.804;2024-03-23T12:17:35;7.80;;;5.20;;
75535;SDS011;64119;52.070;20.804;2024-03-23T12:20:03;8.00;;;4.40;;
75535;SDS011;64119;52.070;20.804;2024-03-23T12:22:31;6.70;;;4.70;;
75535;SDS011;64119;52.070;20.804;2024-03-23T12:24:59;7.00;;;4.40;;
75535;SDS011;64119;52.070;20.804;2024-03-23T12:27:26;7.30;;;4.60;;
75535;SDS011;64119;52.070;20.804;2024-03-23T12:29:54;7.50;;;4.40;;
75535;SDS011;64119;52.070;20.804;2024-03-23T12:32:21;9.30;;;4.20;;
75535;SDS011;64119;52.070;20.804;2024-03-23T12:34:49;11.20;;;6.30;;
75535;SDS011;64119;52.070;20.804;2024-03-23T12:37:16;8.80;;;4.80;;
75535;SDS011;64119;52.070;20.804;2024-03-23T12:39:47;7.50;;;4.50;;
75535;SDS011;64119;52.070;20.804;2024-03-23T12:42:14;7.50;;;4.20;;
75535;SDS011;64119;52.070;20.804;2024-03-23T12:44:42;6.40;;;3.80;;
75535;SDS011;64119;52.070;20.804;2024-03-23T12:47:09;8.00;;;3.90;;
75535;SDS011;64119;52.070;20.804;2024-03-23T12:49:38;7.00;;;4.80;;
75535;SDS011;64119;52.070;20.804;2024-03-23T12:52:05;7.20;;;4.40;;
75535;SDS011;64119;52.070;20.804;2024-03-23T12:54:35;5.60;;;4.00;;
75535;SDS011;64119;52.070;20.804;2024-03-23T12:57:02;7.00;;;4.30;;
75535;SDS011;64119;52.070;20.804;2024-03-23T12:59:30;6.80;;;4.40;;
75535;SDS011;64119;52.070;20.804;2024-03-23T13:01:57;7.90;;;4.70;;
75535;SDS011;64119;52.070;20.804;2024-03-23T13:04:25;7.70;;;4.00;;
75535;SDS011;64119;52.070;20.804;2024-03-23T13:06:52;6.70;;;4.40;;
75535;SDS011;64119;52.070;20.804;2024-03-23T13:09:20;6.30;;;3.80;;
75535;SDS011;64119;52.070;20.804;2024-03-23T13:11:48;6.90;;;4.30;;
75535;SDS011;64119;52.070;20.804;2024-03-23T13:14:15;7.70;;;4.10;;
75535;SDS011;64119;52.070;20.804;2024-03-23T13:16:45;7.40;;;3.70;;
75535;SDS011;64119;52.070;20.804;2024-03-23T13:19:12;5.40;;;3.80;;
75535;SDS011;64119;52.070;20.804;2024-03-23T13:21:40;6.60;;;3.50;;
75535;SDS011;64119;52.070;20.804;2024-03-23T13:24:07;6.40;;;4.00;;
75535;SDS011;64119;52.070;20.804;2024-03-23T13:26:35;7.30;;;3.30;;
75535;SDS011;64119;52.070;20.804;2024-03-23T13:29:03;6.80;;;4.10;;
75535;SDS011;64119;52.070;20.804;2024-03-23T13:31:31;7.10;;;3.50;;
75535;SDS011;64119;52.070;20.804;2024-03-23T13:33:58;6.10;;;3.60;;
75535;SDS011;64119;52.070;20.804;2024-03-23T13:36:26;6.90;;;3.50;;
75535;SDS011;64119;52.070;20.804;2024-03-23T13:38:53;5.40;;;3.40;;
75535;SDS011;64119;52.070;20.804;2024-03-23T13:41:21;8.70;;;4.60;;
75535;SDS011;64119;52.070;20.804;2024-03-23T13:43:49;6.70;;;3.60;;
75535;SDS011;64119;52.070;20.804;2024-03-23T13:46:16;7.20;;;4.30;;
75535;SDS011;64119;52.070;20.804;2024-03-23T13:48:44;5.10;;;3.50;;
75535;SDS011;64119;52.070;20.804;2024-03-23T13:51:11;8.30;;;4.20;;
75535;SDS011;64119;52.070;20.804;2024-03-23T13:53:40;6.10;;;4.10;;
75535;SDS011;64119;52.070;20.804;2024-03-23T13:56:07;5.80;;;3.60;;
75535;SDS011;64119;52.070;20.804;2024-03-23T13:58:35;9.80;;;4.90;;
75535;SDS011;64119;52.070;20.804;2024-03-23T14:01:03;9.40;;;5.30;;
75535;SDS011;64119;52.070;20.804;2024-03-23T14:03:30;7.00;;;4.30;;
75535;SDS011;64119;52.070;20.804;2024-03-23T14:05:58;8.20;;;4.30;;
75535;SDS011;64119;52.070;20.804;2024-03-23T14:08:26;6.70;;;4.20;;
75535;SDS011;64119;52.070;20.804;2024-03-23T14:10:55;8.10;;;4.60;;
75535;SDS011;64119;52.070;20.804;2024-03-23T14:13:23;6.20;;;4.40;;
75535;SDS011;64119;52.070;20.804;2024-03-23T14:15:53;8.30;;;4.60;;
75535;SDS011;64119;52.070;20.804;2024-03-23T14:18:21;7.30;;;4.50;;
75535;SDS011;64119;52.070;20.804;2024-03-23T14:20:56;7.30;;;5.10;;
75535;SDS011;64119;52.070;20.804;2024-03-23T14:23:29;7.70;;;5.20;;
75535;SDS011;64119;52.070;20.804;2024-03-23T14:26:01;7.70;;;4.50;;
75535;SDS011;64119;52.070;20.804;2024-03-23T14:28:28;7.30;;;4.50;;
75535;SDS011;64119;52.070;20.804;2024-03-23T14:30:56;7.00;;;4.80;;
75535;SDS011;64119;52.070;20.804;2024-03-23T14:33:24;8.60;;;5.40;;
75535;SDS011;64119;52.070;20.804;2024-03-23T14:35:54;8.30;;;5.10;;
75535;SDS011;64119;52.070;20.804;2024-03-23T14:38:23;7.40;;;5.10;;
75535;SDS011;64119;52.070;20.804;2024-03-23T14:40:51;8.90;;;5.50;;
75535;SDS011;64119;52.070;20.804;2024-03-23T14:43:20;9.70;;;5.40;;
75535;SDS011;64119;52.070;20.804;2024-03-23T14:46:09;10.10;;;5.20;;
75535;SDS011;64119;52.070;20.804;2024-03-23T14:48:43;10.80;;;6.30;;
75535;SDS011;64119;52.070;20.804;2024-03-23T14:51:12;10.80;;;6.90;;
75535;SDS011;64119;52.070;20.804;2024-03-23T14:53:40;11.60;;;7.10;;
75535;SDS011;64119;52.070;20.804;2024-03-23T14:56:12;10.70;;;6.30;;
75535;SDS011;64119;52.070;20.804;2024-03-23T14:58:43;8.60;;;5.40;;
75535;SDS011;64119;52.070;20.804;2024-03-23T15:01:12;8.10;;;5.60;;
75535;SDS011;64119;52.070;20.804;2024-03-23T15:03:40;11.70;;;8.00;;
75535;SDS011;64119;52.070;20.804;2024-03-23T15:06:10;15.60;;;10.10;;
75535;SDS011;64119;52.070;20.804;2024-03-23T15:08:37;11.90;;;9.70;;
75535;SDS011;64119;52.070;20.804;2024-03-23T15:11:05;10.20;;;7.30;;
75535;SDS011;64119;52.070;20.804;2024-03-23T15:13:33;8.30;;;5.90;;
75535;SDS011;64119;52.070;20.804;2024-03-23T15:16:01;6.40;;;4.00;;
75535;SDS011;64119;52.070;20.804;2024-03-23T15:18:32;8.20;;;5.50;;
75535;SDS011;64119;52.070;20.804;2024-03-23T15:21:03;8.30;;;5.70;;
75535;SDS011;64119;52.070;20.804;2024-03-23T15:23:35;8.10;;;5.00;;
75535;SDS011;64119;52.070;20.804;2024-03-23T15:26:03;11.80;;;6.90;;
75535;SDS011;64119;52.070;20.804;2024-03-23T15:28:33;10.20;;;6.00;;
75535;SDS011;64119;52.070;20.804;2024-03-23T15:31:19;10.20;;;7.00;;
75535;SDS011;64119;52.070;20.804;2024-03-23T15:33:47;11.00;;;7.50;;
75535;SDS011;64119;52.070;20.804;2024-03-23T15:36:14;15.60;;;8.20;;
75535;SDS011;64119;52.070;20.804;2024-03-23T15:38:42;11.40;;;7.30;;
75535;SDS011;64119;52.070;20.804;2024-03-23T15:41:10;11.70;;;6.80;;
75535;SDS011;64119;52.070;20.804;2024-03-23T15:43:38;12.40;;;6.50;;